sensor_id;sensor_type;location;lat;lon;timestamp;pressure;altitude;pressure_sealevel;temperature;humidity
46412;BME280;32113;42.012;24.870;2022-12-07T00:02:14;99196.13;;;7.70;71.05
46412;BME280;32113;42.012;24.870;2022-12-07T00:04:39;99203.78;;;7.62;70.85
46412;BME280;32113;42.012;24.870;2022-12-07T00:07:04;99193.59;;;7.70;70.42
46412;BME280;32113;42.012;24.870;2022-12-07T00:09:30;99195.25;;;7.58;70.94
46412;BME280;32113;42.012;24.870;2022-12-07T00:11:55;99201.25;;;7.67;70.29
46412;BME280;32113;42.012;24.870;2022-12-07T00:14:21;99193.59;;;7.67;70.84
46412;BME280;32113;42.012;24.870;2022-12-07T00:16:48;99202.16;;;7.75;70.46
46412;BME280;32113;42.012;24.870;2022-12-07T00:19:14;99202.13;;;7.78;70.28
46412;BME280;32113;42.012;24.870;2022-12-07T00:21:39;99199.63;;;7.83;70.00
46412;BME280;32113;42.012;24.870;2022-12-07T00:24:05;99197.94;;;7.94;68.94
46412;BME280;32113;42.012;24.870;2022-12-07T00:26:31;99194.53;;;7.91;68.55
46412;BME280;32113;42.012;24.870;2022-12-07T00:28:58;99202.16;;;7.87;69.28
46412;BME280;32113;42.012;24.870;2022-12-07T00:31:25;99201.22;;;7.60;69.59
46412;BME280;32113;42.012;24.870;2022-12-07T00:33:51;99196.91;;;7.48;70.85
46412;BME280;32113;42.012;24.870;2022-12-07T00:36:17;99207.22;;;7.66;70.80
46412;BME280;32113;42.012;24.870;2022-12-07T00:38:43;99199.59;;;7.75;70.15
46412;BME280;32113;42.012;24.870;2022-12-07T00:41:13;99208.97;;;7.84;69.54
46412;BME280;32113;42.012;24.870;2022-12-07T00:43:39;99198.72;;;7.79;69.86
46412;BME280;32113;42.012;24.870;2022-12-07T00:46:05;99202.09;;;7.67;70.23
46412;BME280;32113;42.012;24.870;2022-12-07T00:48:30;99209.69;;;7.52;70.84
46412;BME280;32113;42.012;24.870;2022-12-07T00:50:55;99207.88;;;7.29;71.83
46412;BME280;32113;42.012;24.870;2022-12-07T00:53:21;99207.84;;;7.21;72.26
46412;BME280;32113;42.012;24.870;2022-12-07T00:55:46;99202.66;;;7.08;73.36
46412;BME280;32113;42.012;24.870;2022-12-07T00:58:12;99196.72;;;7.14;72.86
46412;BME280;32113;42.012;24.870;2022-12-07T01:00:38;99195.84;;;7.07;73.08
46412;BME280;32113;42.012;24.870;2022-12-07T01:03:04;99196.72;;;7.09;72.95
46412;BME280;32113;42.012;24.870;2022-12-07T01:05:30;99197.50;;;7.01;73.35
46412;BME280;32113;42.012;24.870;2022-12-07T01:07:55;99198.28;;;6.90;73.79
46412;BME280;32113;42.012;24.870;2022-12-07T01:10:21;99195.63;;;6.75;73.70
46412;BME280;32113;42.012;24.870;2022-12-07T01:12:46;99197.31;;;6.74;74.33
46412;BME280;32113;42.012;24.870;2022-12-07T01:15:12;99194.63;;;6.57;74.79
46412;BME280;32113;42.012;24.870;2022-12-07T01:17:38;99202.25;;;6.51;75.81
46412;BME280;32113;42.012;24.870;2022-12-07T01:20:03;99193.66;;;6.41;76.41
46412;BME280;32113;42.012;24.870;2022-12-07T01:22:29;99183.44;;;6.39;76.00
46412;BME280;32113;42.012;24.870;2022-12-07T01:24:54;99180.13;;;6.47;76.79
46412;BME280;32113;42.012;24.870;2022-12-07T01:27:19;99183.56;;;6.53;75.46
46412;BME280;32113;42.012;24.870;2022-12-07T01:29:45;99181.97;;;6.68;74.88
46412;BME280;32113;42.012;24.870;2022-12-07T01:32:10;99176.81;;;6.60;74.82
46412;BME280;32113;42.012;24.870;2022-12-07T01:34:36;99175.88;;;6.50;75.66
46412;BME280;32113;42.012;24.870;2022-12-07T01:37:01;99178.31;;;6.38;75.68
46412;BME280;32113;42.012;24.870;2022-12-07T01:39:26;99174.09;;;6.38;76.42
46412;BME280;32113;42.012;24.870;2022-12-07T01:41:52;99168.13;;;6.36;76.71
46412;BME280;32113;42.012;24.870;2022-12-07T01:44:19;99161.25;;;6.27;77.28
46412;BME280;32113;42.012;24.870;2022-12-07T01:46:47;99168.84;;;6.21;77.21
46412;BME280;32113;42.012;24.870;2022-12-07T01:49:24;99157.75;;;6.16;77.16
46412;BME280;32113;42.012;24.870;2022-12-07T01:51:52;99155.97;;;6.06;78.31
46412;BME280;32113;42.012;24.870;2022-12-07T01:54:19;99159.34;;;6.03;78.33
46412;BME280;32113;42.012;24.870;2022-12-07T01:56:48;99151.69;;;6.03;78.57
46412;BME280;32113;42.012;24.870;2022-12-07T01:59:16;99155.97;;;6.06;78.76
46412;BME280;32113;42.012;24.870;2022-12-07T02:01:42;99152.47;;;6.00;78.75
46412;BME280;32113;42.012;24.870;2022-12-07T02:04:08;99143.91;;;5.92;78.99
46412;BME280;32113;42.012;24.870;2022-12-07T02:06:34;99143.94;;;5.95;78.87
46412;BME280;32113;42.012;24.870;2022-12-07T02:09:00;99143.94;;;5.95;78.99
46412;BME280;32113;42.012;24.870;2022-12-07T02:11:25;99142.88;;;5.74;80.28
46412;BME280;32113;42.012;24.870;2022-12-07T02:13:52;99141.31;;;5.87;79.89
46412;BME280;32113;42.012;24.870;2022-12-07T02:19:03;99145.56;;;5.88;79.35
46412;BME280;32113;42.012;24.870;2022-12-07T02:27:27;99141.59;;;6.15;77.20
46412;BME280;32113;42.012;24.870;2022-12-07T02:29:47;99130.66;;;6.27;76.73
46412;BME280;32113;42.012;24.870;2022-12-07T02:37:29;99131.19;;;5.95;78.19
46412;BME280;32113;42.012;24.870;2022-12-07T02:40:07;99137.91;;;5.87;78.76
46412;BME280;32113;42.012;24.870;2022-12-07T02:42:38;99131.09;;;5.83;78.46
46412;BME280;32113;42.012;24.870;2022-12-07T02:45:05;99126.81;;;5.83;78.86
46412;BME280;32113;42.012;24.870;2022-12-07T02:47:32;99132.06;;;5.97;78.61
46412;BME280;32113;42.012;24.870;2022-12-07T02:49:59;99132.91;;;5.96;77.60
46412;BME280;32113;42.012;24.870;2022-12-07T02:52:24;99128.63;;;5.90;78.85
46412;BME280;32113;42.012;24.870;2022-12-07T02:54:49;99128.56;;;5.84;79.04
46412;BME280;32113;42.012;24.870;2022-12-07T03:02:24;99114.88;;;5.74;79.40
46412;BME280;32113;42.012;24.870;2022-12-07T03:07:33;99109.91;;;5.90;79.24
46412;BME280;32113;42.012;24.870;2022-12-07T03:10:07;99113.34;;;5.95;77.79
46412;BME280;32113;42.012;24.870;2022-12-07T03:15:06;99098.75;;;5.77;79.21
46412;BME280;32113;42.012;24.870;2022-12-07T03:17:33;99100.44;;;5.73;79.37
46412;BME280;32113;42.012;24.870;2022-12-07T03:20:02;99102.22;;;5.82;79.64
46412;BME280;32113;42.012;24.870;2022-12-07T03:22:30;99100.41;;;5.72;79.32
46412;BME280;32113;42.012;24.870;2022-12-07T03:24:57;99102.22;;;5.82;79.57
46412;BME280;32113;42.012;24.870;2022-12-07T03:27:25;99101.34;;;5.78;79.46
46412;BME280;32113;42.012;24.870;2022-12-07T03:30:04;99098.00;;;5.86;78.51
46412;BME280;32113;42.012;24.870;2022-12-07T03:35:02;99113.38;;;5.94;78.05
46412;BME280;32113;42.012;24.870;2022-12-07T03:37:31;99118.59;;;6.03;77.19
46412;BME280;32113;42.012;24.870;2022-12-07T03:42:33;99123.53;;;5.92;77.27
46412;BME280;32113;42.012;24.870;2022-12-07T03:44:59;99126.91;;;5.91;77.89
46412;BME280;32113;42.012;24.870;2022-12-07T03:52:53;99115.44;;;6.37;75.01
46412;BME280;32113;42.012;24.870;2022-12-07T03:57:46;99120.59;;;6.40;74.90
46412;BME280;32113;42.012;24.870;2022-12-07T04:00:13;99112.19;;;6.53;74.73
46412;BME280;32113;42.012;24.870;2022-12-07T04:02:38;99111.38;;;6.57;73.30
46412;BME280;32113;42.012;24.870;2022-12-07T04:05:04;99108.75;;;6.50;73.82
46412;BME280;32113;42.012;24.870;2022-12-07T04:07:30;99106.13;;;6.40;74.28
46412;BME280;32113;42.012;24.870;2022-12-07T04:09:55;99107.72;;;6.26;74.66
46412;BME280;32113;42.012;24.870;2022-12-07T04:12:22;99111.06;;;6.17;75.75
46412;BME280;32113;42.012;24.870;2022-12-07T04:14:47;99110.84;;;5.97;76.20
46412;BME280;32113;42.012;24.870;2022-12-07T04:17:13;99113.34;;;5.90;76.90
46412;BME280;32113;42.012;24.870;2022-12-07T04:19:39;99108.19;;;5.84;77.13
46412;BME280;32113;42.012;24.870;2022-12-07T04:22:04;99108.13;;;5.79;77.20
46412;BME280;32113;42.012;24.870;2022-12-07T04:24:30;99109.81;;;5.77;77.01
46412;BME280;32113;42.012;24.870;2022-12-07T04:26:56;99106.34;;;5.72;77.14
46412;BME280;32113;42.012;24.870;2022-12-07T04:29:21;99110.66;;;5.75;77.26
46412;BME280;32113;42.012;24.870;2022-12-07T04:31:47;99114.88;;;5.76;77.69
46412;BME280;32113;42.012;24.870;2022-12-07T04:34:13;99110.75;;;5.87;76.85
46412;BME280;32113;42.012;24.870;2022-12-07T04:36:38;99103.19;;;5.97;76.09
46412;BME280;32113;42.012;24.870;2022-12-07T04:39:04;99101.38;;;5.85;76.51
46412;BME280;32113;42.012;24.870;2022-12-07T04:41:30;99102.19;;;5.77;77.06
46412;BME280;32113;42.012;24.870;2022-12-07T04:44:02;99091.75;;;5.56;77.95
46412;BME280;32113;42.012;24.870;2022-12-07T04:46:28;99088.34;;;5.55;77.97
46412;BME280;32113;42.012;24.870;2022-12-07T04:48:54;99087.53;;;5.58;78.12
46412;BME280;32113;42.012;24.870;2022-12-07T04:51:21;99094.25;;;5.52;78.49
46412;BME280;32113;42.012;24.870;2022-12-07T04:53:47;99085.81;;;5.54;78.48
46412;BME280;32113;42.012;24.870;2022-12-07T04:56:13;99083.25;;;5.52;77.94
46412;BME280;32113;42.012;24.870;2022-12-07T04:58:38;99081.69;;;5.67;77.30
46412;BME280;32113;42.012;24.870;2022-12-07T05:01:03;99077.50;;;5.72;77.01
46412;BME280;32113;42.012;24.870;2022-12-07T05:03:32;99077.41;;;5.62;77.16
46412;BME280;32113;42.012;24.870;2022-12-07T05:05:57;99066.44;;;5.67;77.52
46412;BME280;32113;42.012;24.870;2022-12-07T05:08:22;99069.81;;;5.67;76.31
46412;BME280;32113;42.012;24.870;2022-12-07T05:10:48;99081.63;;;5.60;76.15
46412;BME280;32113;42.012;24.870;2022-12-07T05:13:14;99086.72;;;5.59;77.03
46412;BME280;32113;42.012;24.870;2022-12-07T05:15:40;99087.72;;;5.73;76.15
46412;BME280;32113;42.012;24.870;2022-12-07T05:18:05;99091.09;;;5.74;75.46
46412;BME280;32113;42.012;24.870;2022-12-07T05:20:30;99090.31;;;5.79;75.28
46412;BME280;32113;42.012;24.870;2022-12-07T05:22:56;99097.09;;;5.81;75.09
46412;BME280;32113;42.012;24.870;2022-12-07T05:25:23;99096.16;;;5.72;76.09
46412;BME280;32113;42.012;24.870;2022-12-07T05:27:49;99100.44;;;5.73;75.34
46412;BME280;32113;42.012;24.870;2022-12-07T05:30:14;99098.53;;;5.55;76.32
46412;BME280;32113;42.012;24.870;2022-12-07T05:32:40;99109.59;;;5.57;76.60
46412;BME280;32113;42.012;24.870;2022-12-07T05:35:05;99108.72;;;5.55;77.49
46412;BME280;32113;42.012;24.870;2022-12-07T05:37:30;99111.13;;;5.43;77.87
46412;BME280;32113;42.012;24.870;2022-12-07T05:39:56;99101.88;;;5.51;77.40
46412;BME280;32113;42.012;24.870;2022-12-07T05:42:22;99096.91;;;5.59;76.62
46412;BME280;32113;42.012;24.870;2022-12-07T05:44:47;99098.56;;;5.57;76.53
46412;BME280;32113;42.012;24.870;2022-12-07T05:47:13;99106.25;;;5.61;76.88
46412;BME280;32113;42.012;24.870;2022-12-07T05:49:38;99101.22;;;5.68;76.18
46412;BME280;32113;42.012;24.870;2022-12-07T05:52:04;99101.34;;;5.82;75.74
46412;BME280;32113;42.012;24.870;2022-12-07T05:54:29;99105.59;;;5.81;75.50
46412;BME280;32113;42.012;24.870;2022-12-07T05:56:55;99104.84;;;5.91;75.59
46412;BME280;32113;42.012;24.870;2022-12-07T05:59:20;99100.72;;;6.01;74.81
46412;BME280;32113;42.012;24.870;2022-12-07T06:04:20;99098.22;;;6.08;74.46
46412;BME280;32113;42.012;24.870;2022-12-07T06:06:45;99105.91;;;6.12;73.89
46412;BME280;32113;42.012;24.870;2022-12-07T06:09:11;99101.72;;;6.17;74.17
46412;BME280;32113;42.012;24.870;2022-12-07T06:11:37;99100.91;;;6.20;73.53
46412;BME280;32113;42.012;24.870;2022-12-07T06:14:21;99113.59;;;6.17;72.80
46412;BME280;32113;42.012;24.870;2022-12-07T06:16:46;99112.72;;;6.12;73.77
46412;BME280;32113;42.012;24.870;2022-12-07T06:19:12;99109.44;;;6.28;73.22
46412;BME280;32113;42.012;24.870;2022-12-07T06:21:37;99112.00;;;6.27;72.59
46412;BME280;32113;42.012;24.870;2022-12-07T06:24:02;99117.97;;;6.35;72.63
46412;BME280;32113;42.012;24.870;2022-12-07T06:26:28;99121.53;;;6.53;71.96
46412;BME280;32113;42.012;24.870;2022-12-07T06:28:53;99119.03;;;6.57;71.26
46412;BME280;32113;42.012;24.870;2022-12-07T06:31:18;99113.88;;;6.54;71.76
46412;BME280;32113;42.012;24.870;2022-12-07T06:33:44;99122.38;;;6.53;72.86
46412;BME280;32113;42.012;24.870;2022-12-07T06:36:09;99119.84;;;6.55;71.84
46412;BME280;32113;42.012;24.870;2022-12-07T06:38:35;99109.72;;;6.67;71.60
46412;BME280;32113;42.012;24.870;2022-12-07T06:41:00;99121.66;;;6.72;72.09
46412;BME280;32113;42.012;24.870;2022-12-07T06:43:25;99120.03;;;6.86;71.82
46412;BME280;32113;42.012;24.870;2022-12-07T06:45:51;99121.81;;;7.00;71.98
46412;BME280;32113;42.012;24.870;2022-12-07T06:48:16;99118.47;;;7.07;69.92
46412;BME280;32113;42.012;24.870;2022-12-07T06:50:43;99125.25;;;7.06;70.28
46412;BME280;32113;42.012;24.870;2022-12-07T06:53:09;99121.09;;;7.29;69.46
46412;BME280;32113;42.012;24.870;2022-12-07T06:55:35;99123.69;;;7.33;69.12
46412;BME280;32113;42.012;24.870;2022-12-07T06:58:00;99116.94;;;7.49;67.68
46412;BME280;32113;42.012;24.870;2022-12-07T07:00:26;99122.91;;;7.53;66.55
46412;BME280;32113;42.012;24.870;2022-12-07T07:02:52;99116.09;;;7.63;68.62
46412;BME280;32113;42.012;24.870;2022-12-07T07:05:17;99113.59;;;7.77;67.32
46412;BME280;32113;42.012;24.870;2022-12-07T07:07:42;99111.91;;;7.85;66.82
46412;BME280;32113;42.012;24.870;2022-12-07T07:10:08;99115.34;;;8.01;66.86
46412;BME280;32113;42.012;24.870;2022-12-07T07:12:33;99117.03;;;7.98;67.42
46412;BME280;32113;42.012;24.870;2022-12-07T07:14:58;99119.59;;;8.06;67.07
46412;BME280;32113;42.012;24.870;2022-12-07T07:17:24;99117.91;;;8.25;66.85
46412;BME280;32113;42.012;24.870;2022-12-07T07:19:49;99113.66;;;8.44;66.13
46412;BME280;32113;42.012;24.870;2022-12-07T07:22:14;99118.75;;;8.50;64.83
46412;BME280;32113;42.012;24.870;2022-12-07T07:24:39;99116.19;;;8.47;64.88
46412;BME280;32113;42.012;24.870;2022-12-07T07:27:05;99110.22;;;8.51;65.73
46412;BME280;32113;42.012;24.870;2022-12-07T07:29:31;99115.38;;;8.65;64.60
46412;BME280;32113;42.012;24.870;2022-12-07T07:31:56;99114.50;;;8.79;64.59
46412;BME280;32113;42.012;24.870;2022-12-07T07:34:21;99117.03;;;8.87;64.08
46412;BME280;32113;42.012;24.870;2022-12-07T07:36:46;99125.53;;;8.89;63.79
46412;BME280;32113;42.012;24.870;2022-12-07T07:39:12;99127.22;;;9.02;64.45
46412;BME280;32113;42.012;24.870;2022-12-07T07:41:40;99126.28;;;9.20;64.15
46412;BME280;32113;42.012;24.870;2022-12-07T07:44:05;99118.56;;;9.36;62.74
46412;BME280;32113;42.012;24.870;2022-12-07T07:46:30;99120.22;;;9.46;62.02
46412;BME280;32113;42.012;24.870;2022-12-07T07:48:58;99111.72;;;9.43;61.36
46412;BME280;32113;42.012;24.870;2022-12-07T07:51:23;99120.28;;;9.37;61.71
46412;BME280;32113;42.012;24.870;2022-12-07T07:53:48;99112.56;;;9.43;62.12
46412;BME280;32113;42.012;24.870;2022-12-07T07:56:13;99121.09;;;9.39;62.26
46412;BME280;32113;42.012;24.870;2022-12-07T07:58:39;99119.41;;;9.37;61.90
46412;BME280;32113;42.012;24.870;2022-12-07T08:01:05;99121.09;;;9.41;62.74
46412;BME280;32113;42.012;24.870;2022-12-07T08:03:30;99119.31;;;9.54;61.78
46412;BME280;32113;42.012;24.870;2022-12-07T08:05:56;99124.34;;;9.72;62.39
46412;BME280;32113;42.012;24.870;2022-12-07T08:08:21;99122.53;;;9.90;61.17
46412;BME280;32113;42.012;24.870;2022-12-07T08:10:47;99124.16;;;10.08;60.60
46412;BME280;32113;42.012;24.870;2022-12-07T08:13:13;99114.59;;;10.28;60.38
46412;BME280;32113;42.012;24.870;2022-12-07T08:15:41;99114.47;;;10.48;60.00
46412;BME280;32113;42.012;24.870;2022-12-07T08:18:06;99117.72;;;10.64;59.80
46412;BME280;32113;42.012;24.870;2022-12-07T08:20:33;99113.28;;;10.82;59.94
46412;BME280;32113;42.012;24.870;2022-12-07T08:22:58;99107.97;;;11.00;58.64
46412;BME280;32113;42.012;24.870;2022-12-07T08:25:24;99109.50;;;11.14;58.20
46412;BME280;32113;42.012;24.870;2022-12-07T08:27:49;99110.19;;;11.28;58.63
46412;BME280;32113;42.012;24.870;2022-12-07T08:30:15;99107.34;;;11.49;57.45
46412;BME280;32113;42.012;24.870;2022-12-07T08:32:40;99103.00;;;11.54;57.76
46412;BME280;32113;42.012;24.870;2022-12-07T08:35:06;99107.22;;;11.60;57.83
46412;BME280;32113;42.012;24.870;2022-12-07T08:37:31;99106.16;;;11.75;58.17
46412;BME280;32113;42.012;24.870;2022-12-07T08:39:57;99107.56;;;11.96;58.07
46412;BME280;32113;42.012;24.870;2022-12-07T08:42:23;99103.16;;;12.04;58.46
46412;BME280;32113;42.012;24.870;2022-12-07T08:44:52;99098.81;;;12.11;58.27
46412;BME280;32113;42.012;24.870;2022-12-07T08:47:17;99100.53;;;12.09;58.63
46412;BME280;32113;42.012;24.870;2022-12-07T08:49:43;99097.84;;;12.17;58.45
46412;BME280;32113;42.012;24.870;2022-12-07T08:52:10;99104.72;;;12.16;58.35
46412;BME280;32113;42.012;24.870;2022-12-07T08:54:36;99112.34;;;12.22;58.99
46412;BME280;32113;42.012;24.870;2022-12-07T08:57:03;99105.41;;;12.26;58.36
46412;BME280;32113;42.012;24.870;2022-12-07T08:59:29;99097.59;;;12.32;58.12
46412;BME280;32113;42.012;24.870;2022-12-07T09:01:55;99094.91;;;12.40;58.13
46412;BME280;32113;42.012;24.870;2022-12-07T09:04:20;99081.56;;;12.67;57.44
46412;BME280;32113;42.012;24.870;2022-12-07T09:06:46;99086.75;;;13.09;56.86
46412;BME280;32113;42.012;24.870;2022-12-07T09:09:11;99077.16;;;13.59;56.05
46412;BME280;32113;42.012;24.870;2022-12-07T09:11:38;99072.19;;;13.89;54.49
46412;BME280;32113;42.012;24.870;2022-12-07T09:14:04;99061.56;;;14.03;52.92
46412;BME280;32113;42.012;24.870;2022-12-07T09:16:29;99061.34;;;14.11;52.75
46412;BME280;32113;42.012;24.870;2022-12-07T09:18:54;99061.13;;;14.20;51.29
46412;BME280;32113;42.012;24.870;2022-12-07T09:21:20;99051.56;;;14.24;51.92
46412;BME280;32113;42.012;24.870;2022-12-07T09:23:45;99053.81;;;14.38;51.49
46412;BME280;32113;42.012;24.870;2022-12-07T09:26:10;99045.13;;;14.40;51.49
46412;BME280;32113;42.012;24.870;2022-12-07T09:28:36;99037.16;;;14.50;51.00
46412;BME280;32113;42.012;24.870;2022-12-07T09:31:02;99035.94;;;14.63;51.14
46412;BME280;32113;42.012;24.870;2022-12-07T09:33:27;99036.91;;;14.59;50.37
46412;BME280;32113;42.012;24.870;2022-12-07T09:35:53;99031.72;;;14.61;51.09
46412;BME280;32113;42.012;24.870;2022-12-07T09:38:19;99032.00;;;14.81;51.25
46412;BME280;32113;42.012;24.870;2022-12-07T09:40:45;99030.56;;;15.03;49.87
46412;BME280;32113;42.012;24.870;2022-12-07T09:43:14;99024.75;;;15.24;50.04
46412;BME280;32113;42.012;24.870;2022-12-07T09:45:40;99020.47;;;15.52;49.44
46412;BME280;32113;42.012;24.870;2022-12-07T09:48:09;99008.59;;;15.73;48.48
46412;BME280;32113;42.012;24.870;2022-12-07T09:50:39;99005.47;;;15.90;48.41
46412;BME280;32113;42.012;24.870;2022-12-07T09:53:09;99005.09;;;16.03;47.59
46412;BME280;32113;42.012;24.870;2022-12-07T09:55:35;98998.13;;;16.31;46.97
46412;BME280;32113;42.012;24.870;2022-12-07T09:58:01;98998.28;;;16.51;45.87
46412;BME280;32113;42.012;24.870;2022-12-07T10:00:26;98986.44;;;16.68;45.88
46412;BME280;32113;42.012;24.870;2022-12-07T10:03:02;98982.41;;;16.85;45.51
46412;BME280;32113;42.012;24.870;2022-12-07T10:05:35;98977.94;;;16.88;43.89
46412;BME280;32113;42.012;24.870;2022-12-07T10:08:02;98978.59;;;16.93;44.70
46412;BME280;32113;42.012;24.870;2022-12-07T10:10:32;98976.63;;;17.00;44.43
46412;BME280;32113;42.012;24.870;2022-12-07T10:13:04;98972.19;;;17.04;44.25
46412;BME280;32113;42.012;24.870;2022-12-07T10:15:46;98973.81;;;17.06;44.96
46412;BME280;32113;42.012;24.870;2022-12-07T10:18:19;98978.78;;;17.13;45.18
46412;BME280;32113;42.012;24.870;2022-12-07T10:20:45;98980.34;;;17.17;44.90
46412;BME280;32113;42.012;24.870;2022-12-07T10:23:14;98981.03;;;17.22;44.64
46412;BME280;32113;42.012;24.870;2022-12-07T10:25:40;98973.41;;;17.17;44.63
46412;BME280;32113;42.012;24.870;2022-12-07T10:30:32;98973.00;;;17.06;44.76
46412;BME280;32113;42.012;24.870;2022-12-07T10:32:58;98972.03;;;16.85;45.18
46412;BME280;32113;42.012;24.870;2022-12-07T10:35:25;98971.28;;;16.57;45.84
46412;BME280;32113;42.012;24.870;2022-12-07T10:37:51;98974.72;;;16.34;46.84
46412;BME280;32113;42.012;24.870;2022-12-07T10:40:25;98965.97;;;16.12;46.95
46412;BME280;32113;42.012;24.870;2022-12-07T10:43:00;98963.06;;;15.96;47.43
46412;BME280;32113;42.012;24.870;2022-12-07T10:45:25;98961.53;;;15.89;48.08
46412;BME280;32113;42.012;24.870;2022-12-07T10:47:51;98952.75;;;15.95;47.82
46412;BME280;32113;42.012;24.870;2022-12-07T11:00:35;98959.06;;;15.59;48.96
46412;BME280;32113;42.012;24.870;2022-12-07T11:10:55;98961.78;;;14.98;50.37
46412;BME280;32113;42.012;24.870;2022-12-07T11:16:08;98952.09;;;14.75;52.23
46412;BME280;32113;42.012;24.870;2022-12-07T11:21:57;98940.31;;;14.65;51.90
46412;BME280;32113;42.012;24.870;2022-12-07T11:24:15;98943.50;;;14.76;52.27
46412;BME280;32113;42.012;24.870;2022-12-07T11:29:28;98923.94;;;14.67;51.75
46412;BME280;32113;42.012;24.870;2022-12-07T11:36:57;98925.84;;;14.29;52.71
46412;BME280;32113;42.012;24.870;2022-12-07T11:39:33;98932.78;;;14.27;53.83
46412;BME280;32113;42.012;24.870;2022-12-07T11:42:01;98927.75;;;14.22;54.10
46412;BME280;32113;42.012;24.870;2022-12-07T11:44:31;98923.69;;;14.13;54.03
46412;BME280;32113;42.012;24.870;2022-12-07T11:47:14;98922.84;;;14.13;53.50
46412;BME280;32113;42.012;24.870;2022-12-07T11:49:47;98918.31;;;14.21;53.80
46412;BME280;32113;42.012;24.870;2022-12-07T11:52:22;98909.81;;;14.17;53.70
46412;BME280;32113;42.012;24.870;2022-12-07T11:54:51;98908.59;;;14.31;53.49
46412;BME280;32113;42.012;24.870;2022-12-07T11:57:23;98896.22;;;14.42;53.02
46412;BME280;32113;42.012;24.870;2022-12-07T11:59:52;98895.16;;;14.50;52.68
46412;BME280;32113;42.012;24.870;2022-12-07T12:02:24;98882.22;;;14.51;52.25
46412;BME280;32113;42.012;24.870;2022-12-07T12:07:35;98892.00;;;14.40;52.44
46412;BME280;32113;42.012;24.870;2022-12-07T12:10:03;98885.59;;;14.23;52.65
46412;BME280;32113;42.012;24.870;2022-12-07T12:15:03;98882.50;;;14.10;53.55
46412;BME280;32113;42.012;24.870;2022-12-07T12:20:16;98878.22;;;14.09;53.64
46412;BME280;32113;42.012;24.870;2022-12-07T12:22:45;98883.38;;;14.09;53.57
46412;BME280;32113;42.012;24.870;2022-12-07T12:25:19;98868.88;;;14.05;54.60
46412;BME280;32113;42.012;24.870;2022-12-07T12:27:45;98868.19;;;13.98;54.99
46412;BME280;32113;42.012;24.870;2022-12-07T12:30:26;98869.94;;;13.98;54.38
46412;BME280;32113;42.012;24.870;2022-12-07T12:32:54;98871.09;;;13.87;54.69
46412;BME280;32113;42.012;24.870;2022-12-07T12:37:56;98868.66;;;13.81;54.91
46412;BME280;32113;42.012;24.870;2022-12-07T12:40:40;98865.03;;;13.88;54.80
46412;BME280;32113;42.012;24.870;2022-12-07T12:43:38;98870.94;;;13.92;54.53
46412;BME280;32113;42.012;24.870;2022-12-07T12:45:51;98864.88;;;13.95;54.54
46412;BME280;32113;42.012;24.870;2022-12-07T12:48:36;98863.91;;;13.65;55.27
46412;BME280;32113;42.012;24.870;2022-12-07T12:51:44;98869.34;;;13.55;55.80
46412;BME280;32113;42.012;24.870;2022-12-07T12:53:50;98863.75;;;13.35;56.63
46412;BME280;32113;42.012;24.870;2022-12-07T12:58:41;98869.16;;;13.26;57.15
46412;BME280;32113;42.012;24.870;2022-12-07T13:03:53;98858.72;;;13.31;57.29
46412;BME280;32113;42.012;24.870;2022-12-07T13:06:20;98857.00;;;13.31;57.78
46412;BME280;32113;42.012;24.870;2022-12-07T13:08:58;98849.44;;;13.23;56.78
46412;BME280;32113;42.012;24.870;2022-12-07T13:11:34;98851.28;;;13.18;57.43
46412;BME280;32113;42.012;24.870;2022-12-07T13:16:44;98856.81;;;13.03;58.51
46412;BME280;32113;42.012;24.870;2022-12-07T13:21:53;98854.41;;;12.96;59.07
46412;BME280;32113;42.012;24.870;2022-12-07T13:24:18;98855.91;;;13.05;59.29
46412;BME280;32113;42.012;24.870;2022-12-07T13:26:44;98853.34;;;13.04;58.78
46412;BME280;32113;42.012;24.870;2022-12-07T13:29:14;98861.91;;;13.06;58.86
46412;BME280;32113;42.012;24.870;2022-12-07T13:31:49;98853.44;;;13.00;58.98
46412;BME280;32113;42.012;24.870;2022-12-07T13:34:29;98853.44;;;13.00;58.89
46412;BME280;32113;42.012;24.870;2022-12-07T13:36:55;98860.38;;;12.97;59.07
46412;BME280;32113;42.012;24.870;2022-12-07T13:39:22;98855.19;;;12.98;59.46
46412;BME280;32113;42.012;24.870;2022-12-07T13:41:52;98850.00;;;13.00;59.90
46412;BME280;32113;42.012;24.870;2022-12-07T13:44:17;98850.91;;;12.99;59.46
46412;BME280;32113;42.012;24.870;2022-12-07T13:49:22;98848.91;;;13.10;58.53
46412;BME280;32113;42.012;24.870;2022-12-07T13:51:47;98850.97;;;12.96;59.10
46412;BME280;32113;42.012;24.870;2022-12-07T13:54:13;98845.75;;;12.99;59.53
46412;BME280;32113;42.012;24.870;2022-12-07T13:56:39;98846.50;;;13.03;59.87
46412;BME280;32113;42.012;24.870;2022-12-07T13:59:14;98848.22;;;13.02;59.42
46412;BME280;32113;42.012;24.870;2022-12-07T14:01:41;98852.66;;;12.97;59.24
46412;BME280;32113;42.012;24.870;2022-12-07T14:06:50;98859.41;;;13.01;59.63
46412;BME280;32113;42.012;24.870;2022-12-07T14:09:22;98859.44;;;12.99;59.82
46412;BME280;32113;42.012;24.870;2022-12-07T14:11:48;98856.94;;;12.98;59.91
46412;BME280;32113;42.012;24.870;2022-12-07T14:14:19;98860.31;;;13.00;59.82
46412;BME280;32113;42.012;24.870;2022-12-07T14:16:54;98858.53;;;13.02;59.86
46412;BME280;32113;42.012;24.870;2022-12-07T14:22:08;98870.69;;;12.95;61.03
46412;BME280;32113;42.012;24.870;2022-12-07T14:24:41;98870.66;;;12.98;61.03
46412;BME280;32113;42.012;24.870;2022-12-07T14:27:14;98871.63;;;12.93;61.09
46412;BME280;32113;42.012;24.870;2022-12-07T14:29:41;98861.44;;;12.88;61.12
46412;BME280;32113;42.012;24.870;2022-12-07T14:32:20;98867.38;;;12.90;60.57
46412;BME280;32113;42.012;24.870;2022-12-07T14:34:55;98865.84;;;12.83;61.53
46412;BME280;32113;42.012;24.870;2022-12-07T14:37:21;98867.66;;;12.79;61.31
46412;BME280;32113;42.012;24.870;2022-12-07T14:39:46;98869.44;;;12.75;61.54